createdAt,value
2019-05-19T00:00:34.623Z,319.32
2019-05-19T00:01:34.620Z,320.86
2019-05-19T00:02:34.611Z,318.21
2019-05-19T00:03:34.587Z,322.66
2019-05-19T00:04:34.588Z,317.66
2019-05-19T00:05:34.589Z,321.25
2019-05-19T00:06:34.552Z,318.07
2019-05-19T00:07:34.579Z,322.86
2019-05-19T00:08:34.522Z,319.66
2019-05-19T00:09:34.537Z,324.66
2019-05-19T00:10:34.512Z,324.38
2019-05-19T00:11:34.515Z,323.84
2019-05-19T00:12:34.514Z,324.09
2019-05-19T00:13:34.487Z,324.78
2019-05-19T00:14:34.478Z,323.86
2019-05-19T00:15:34.450Z,324.13
2019-05-19T00:16:34.434Z,324.04
2019-05-19T00:17:34.448Z,324.04
2019-05-19T00:18:34.430Z,324.79
2019-05-19T00:19:34.399Z,324.50
2019-05-19T00:20:34.396Z,320.11
2019-05-19T00:21:34.390Z,325.65
2019-05-19T00:22:34.389Z,320.24
2019-05-19T00:23:34.371Z,323.97
2019-05-19T00:24:34.374Z,325.68
2019-05-19T00:25:34.355Z,324.35
2019-05-19T00:26:34.336Z,321.62
2019-05-19T00:27:34.333Z,325.03
2019-05-19T00:28:34.325Z,321.21
2019-05-19T00:29:34.294Z,325.83
2019-05-19T00:30:34.284Z,321.18
2019-05-19T00:31:34.283Z,325.77
2019-05-19T00:32:34.291Z,320.54
2019-05-19T00:33:34.248Z,324.76
2019-05-19T00:34:34.261Z,319.65
2019-05-19T00:35:34.240Z,324.85
2019-05-19T00:36:34.221Z,321.02
2019-05-19T00:37:34.567Z,324.96
2019-05-19T00:38:34.204Z,319.96
2019-05-19T00:39:34.191Z,323.46
2019-05-19T00:40:34.173Z,325.60
2019-05-19T00:41:34.159Z,323.36
2019-05-19T00:42:34.164Z,319.86
2019-05-19T00:43:34.146Z,325.27
2019-05-19T00:44:34.150Z,324.40
2019-05-19T00:45:34.126Z,325.24
2019-05-19T00:46:34.111Z,324.19
2019-05-19T00:47:34.109Z,324.33
2019-05-19T00:48:34.087Z,323.80
2019-05-19T00:49:41.391Z,323.15
2019-05-19T00:50:35.062Z,324.89
2019-05-19T00:51:34.051Z,322.22
2019-05-19T00:52:34.071Z,318.58
2019-05-19T00:53:34.034Z,322.44
2019-05-19T00:54:34.017Z,317.88
2019-05-19T00:55:34.024Z,322.46
2019-05-19T00:56:33.997Z,319.62
2019-05-19T00:57:34.004Z,323.15
2019-05-19T00:58:33.979Z,318.90
2019-05-19T00:59:33.973Z,322.00
2019-05-19T01:00:33.958Z,317.70
2019-05-19T01:01:33.946Z,323.85
2019-05-19T01:02:33.940Z,319.75
2019-05-19T01:03:33.925Z,323.30
2019-05-19T01:04:33.907Z,318.63
2019-05-19T01:05:33.893Z,324.97
2019-05-19T01:06:33.887Z,319.50
2019-05-19T01:07:33.894Z,318.21
2019-05-19T01:08:33.868Z,318.63
2019-05-19T01:09:33.854Z,324.51
2019-05-19T01:10:33.850Z,317.94
2019-05-19T01:11:33.834Z,322.96
2019-05-19T01:12:33.826Z,318.11
2019-05-19T01:13:33.805Z,323.25
2019-05-19T01:14:33.808Z,319.46
2019-05-19T01:15:33.788Z,322.77
2019-05-19T01:16:33.792Z,317.39
2019-05-19T01:17:33.768Z,320.20
2019-05-19T01:18:33.776Z,319.61
2019-05-19T01:19:33.751Z,318.40
2019-05-19T01:20:33.769Z,319.18
2019-05-19T01:21:33.728Z,317.61
2019-05-19T01:22:33.722Z,318.13
2019-05-19T01:23:33.714Z,318.26
2019-05-19T01:24:33.684Z,319.24
2019-05-19T01:25:33.673Z,318.07
2019-05-19T01:26:33.656Z,319.34
2019-05-19T01:27:33.657Z,318.77
2019-05-19T01:28:33.663Z,319.03
2019-05-19T01:29:33.642Z,319.82
2019-05-19T01:30:33.624Z,320.81
2019-05-19T01:31:33.633Z,319.23
2019-05-19T01:32:33.591Z,317.79
2019-05-19T01:33:33.601Z,317.79
2019-05-19T01:34:33.570Z,318.20
2019-05-19T01:35:33.568Z,319.11
2019-05-19T01:36:33.558Z,318.23
2019-05-19T01:37:33.581Z,319.28
2019-05-19T01:38:33.592Z,318.18
2019-05-19T01:39:33.531Z,318.42
2019-05-19T01:40:33.515Z,317.53
2019-05-19T01:41:33.515Z,319.12
2019-05-19T01:42:33.498Z,318.06
2019-05-19T01:43:33.492Z,317.82
2019-05-19T01:44:33.454Z,316.53
2019-05-19T01:45:33.980Z,316.58
2019-05-19T01:46:33.431Z,317.47
2019-05-19T01:47:33.435Z,317.22
2019-05-19T01:48:33.439Z,316.92
2019-05-19T01:49:33.411Z,318.72
2019-05-19T01:50:33.403Z,315.99
2019-05-19T01:51:33.380Z,316.99
2019-05-19T01:52:33.373Z,318.07
2019-05-19T01:53:33.384Z,317.71
2019-05-19T01:54:33.362Z,316.92
2019-05-19T01:55:33.343Z,318.50
2019-05-19T01:56:33.319Z,317.99
2019-05-19T01:57:33.334Z,318.98
2019-05-19T01:58:33.336Z,316.75
2019-05-19T01:59:33.309Z,317.38
2019-05-19T02:00:33.289Z,316.62
2019-05-19T02:01:33.303Z,318.79
2019-05-19T02:02:33.286Z,316.75
2019-05-19T02:03:33.286Z,317.76
2019-05-19T02:04:33.246Z,316.73
2019-05-19T02:05:33.234Z,316.47
2019-05-19T02:06:33.208Z,317.35
2019-05-19T02:07:33.244Z,315.94
2019-05-19T02:08:33.209Z,316.79
2019-05-19T02:09:33.182Z,316.01
2019-05-19T02:10:33.168Z,317.43
2019-05-19T02:11:33.181Z,316.54
2019-05-19T02:12:33.165Z,318.14
2019-05-19T02:13:33.164Z,318.59
2019-05-19T02:14:33.148Z,317.90
2019-05-19T02:15:33.124Z,317.42
2019-05-19T02:16:33.120Z,319.06
2019-05-19T02:17:33.096Z,318.71
2019-05-19T02:18:33.104Z,317.08
2019-05-19T02:19:33.090Z,318.35
2019-05-19T02:20:34.007Z,317.06
2019-05-19T02:21:33.062Z,316.79
2019-05-19T02:22:33.056Z,316.41
2019-05-19T02:23:33.060Z,315.84
2019-05-19T02:24:33.026Z,315.34
2019-05-19T02:25:33.020Z,315.01
2019-05-19T02:26:33.035Z,316.21
2019-05-19T02:27:32.987Z,313.85
2019-05-19T02:28:32.992Z,314.39
2019-05-19T02:29:32.965Z,315.19
2019-05-19T02:30:32.973Z,315.41
2019-05-19T02:31:32.962Z,314.08
2019-05-19T02:32:32.941Z,314.02
2019-05-19T02:33:35.638Z,314.31
2019-05-19T02:34:32.928Z,314.53
2019-05-19T02:35:32.904Z,315.20
2019-05-19T02:36:32.890Z,313.50
2019-05-19T02:37:32.882Z,315.88
2019-05-19T02:38:32.881Z,316.17
2019-05-19T02:39:32.866Z,317.65
2019-05-19T02:40:32.864Z,316.99
2019-05-19T02:41:32.830Z,318.56
2019-05-19T02:42:32.812Z,317.14
2019-05-19T02:43:32.836Z,317.84
2019-05-19T02:44:32.806Z,317.55
2019-05-19T02:45:32.798Z,317.40
2019-05-19T02:46:32.797Z,316.53
2019-05-19T02:47:32.784Z,316.67
2019-05-19T02:48:32.757Z,317.90
2019-05-19T02:49:32.738Z,318.62
2019-05-19T02:50:50.536Z,317.44
2019-05-19T02:51:33.818Z,317.80
2019-05-19T02:52:32.718Z,316.71
2019-05-19T02:53:32.758Z,316.98
2019-05-19T02:54:32.723Z,317.98
2019-05-19T02:55:32.671Z,316.50
2019-05-19T02:56:32.669Z,315.22
2019-05-19T02:57:32.666Z,316.22
2019-05-19T02:58:32.653Z,315.08
2019-05-19T02:59:32.643Z,313.85
2019-05-19T03:00:32.621Z,313.63
2019-05-19T03:01:32.608Z,313.66
2019-05-19T03:02:32.599Z,313.71
2019-05-19T03:03:32.594Z,313.84
2019-05-19T03:04:32.610Z,313.72
2019-05-19T03:05:32.571Z,313.74
2019-05-19T03:06:32.575Z,314.48
2019-05-19T03:07:32.632Z,314.39
2019-05-19T03:08:32.537Z,313.39
2019-05-19T03:09:32.535Z,313.91
2019-05-19T03:10:32.514Z,313.95
2019-05-19T03:11:32.512Z,314.21
2019-05-19T03:12:32.487Z,313.86
2019-05-19T03:13:32.476Z,314.02
2019-05-19T03:14:32.484Z,315.17
2019-05-19T03:15:32.460Z,313.90
2019-05-19T03:16:32.453Z,313.44
2019-05-19T03:17:32.453Z,314.38
2019-05-19T03:18:32.426Z,315.84
2019-05-19T03:19:32.425Z,313.95
2019-05-19T03:20:32.400Z,314.45
2019-05-19T03:21:32.384Z,313.80
2019-05-19T03:22:32.383Z,315.40
2019-05-19T03:23:32.389Z,316.07
2019-05-19T03:24:32.400Z,315.24
2019-05-19T03:25:32.348Z,316.32
2019-05-19T03:26:32.348Z,317.81
2019-05-19T03:27:32.341Z,314.79
2019-05-19T03:28:32.309Z,314.57
2019-05-19T03:29:32.327Z,313.38
2019-05-19T03:30:32.302Z,316.23
2019-05-19T03:31:32.275Z,313.28
2019-05-19T03:32:32.269Z,313.75
2019-05-19T03:33:32.279Z,314.68
2019-05-19T03:34:32.261Z,314.56
2019-05-19T03:35:32.256Z,314.18
2019-05-19T03:36:32.219Z,315.12
2019-05-19T03:37:32.220Z,315.10
2019-05-19T03:38:32.206Z,312.71
2019-05-19T03:39:32.202Z,313.77
2019-05-19T03:40:32.202Z,313.84
2019-05-19T03:41:32.175Z,314.17
2019-05-19T03:42:32.158Z,312.92
2019-05-19T03:43:32.159Z,313.17
2019-05-19T03:44:32.164Z,315.41
2019-05-19T03:45:32.113Z,315.44
2019-05-19T03:46:32.104Z,314.34
2019-05-19T03:47:32.123Z,313.05
2019-05-19T03:48:32.099Z,313.91
2019-05-19T03:49:32.098Z,313.50
2019-05-19T03:50:32.075Z,313.26
2019-05-19T03:51:32.190Z,314.61
2019-05-19T03:52:32.048Z,314.37
2019-05-19T03:53:32.038Z,313.71
2019-05-19T03:54:32.045Z,314.86
2019-05-19T03:55:32.039Z,314.12
2019-05-19T03:56:32.006Z,315.66
2019-05-19T03:57:32.022Z,313.05
2019-05-19T03:58:31.994Z,314.08
2019-05-19T03:59:31.989Z,314.50
2019-05-19T04:00:31.967Z,314.02
2019-05-19T04:01:31.952Z,313.65
2019-05-19T04:02:31.947Z,314.24
2019-05-19T04:03:31.928Z,313.80
2019-05-19T04:04:31.929Z,313.50
2019-05-19T04:05:31.908Z,313.44
2019-05-19T04:06:31.899Z,312.62
2019-05-19T04:07:31.892Z,314.51
2019-05-19T04:08:31.895Z,313.77
2019-05-19T04:09:31.888Z,314.52
2019-05-19T04:10:31.851Z,312.73
2019-05-19T04:11:31.826Z,314.97
2019-05-19T04:12:31.831Z,314.70
2019-05-19T04:13:31.821Z,313.68
2019-05-19T04:14:31.822Z,313.13
2019-05-19T04:15:31.793Z,312.50
2019-05-19T04:16:31.793Z,314.61
2019-05-19T04:17:31.765Z,313.51
2019-05-19T04:18:31.756Z,312.08
2019-05-19T04:19:31.764Z,313.28
2019-05-19T04:20:31.762Z,312.13
2019-05-19T04:21:47.650Z,311.96
2019-05-19T04:22:32.723Z,312.81
2019-05-19T04:23:31.701Z,312.48
2019-05-19T04:24:31.742Z,313.31
2019-05-19T04:25:31.732Z,312.95
2019-05-19T04:26:31.662Z,314.99
2019-05-19T04:27:31.662Z,313.78
2019-05-19T04:28:31.647Z,313.01
2019-05-19T04:29:31.643Z,313.00
2019-05-19T04:30:31.643Z,313.51
2019-05-19T04:31:31.622Z,315.46
2019-05-19T04:32:31.605Z,313.20
2019-05-19T04:33:31.595Z,314.67
2019-05-19T04:34:31.577Z,314.87
2019-05-19T04:35:31.567Z,314.00
2019-05-19T04:36:31.551Z,314.31
2019-05-19T04:37:31.548Z,314.00
2019-05-19T04:38:31.538Z,313.63
2019-05-19T04:39:31.526Z,314.58
2019-05-19T04:40:31.532Z,314.76
2019-05-19T04:41:31.513Z,312.34
2019-05-19T04:42:31.500Z,312.34
2019-05-19T04:43:31.478Z,312.40
2019-05-19T04:44:31.468Z,311.95
2019-05-19T04:45:31.478Z,312.53
2019-05-19T04:46:31.448Z,312.24
2019-05-19T04:47:31.439Z,312.42
2019-05-19T04:48:31.438Z,312.80
2019-05-19T04:49:31.411Z,311.20
2019-05-19T04:50:31.497Z,313.89
2019-05-19T04:51:31.396Z,311.80
2019-05-19T04:52:31.393Z,312.27
2019-05-19T04:53:31.368Z,313.99
2019-05-19T04:54:31.381Z,311.62
2019-05-19T04:55:31.351Z,312.34
2019-05-19T04:56:31.341Z,313.98
2019-05-19T04:57:31.326Z,313.42
2019-05-19T04:58:31.322Z,312.20
2019-05-19T04:59:31.310Z,313.62
2019-05-19T05:00:31.311Z,312.36
2019-05-19T05:01:31.293Z,311.97
2019-05-19T05:02:31.282Z,312.74
2019-05-19T05:03:31.258Z,313.00
2019-05-19T05:04:31.254Z,311.88
2019-05-19T05:05:31.260Z,311.64
2019-05-19T05:06:31.239Z,311.92
2019-05-19T05:07:31.227Z,316.52
2019-05-19T05:08:31.209Z,319.22
2019-05-19T05:09:31.197Z,312.12
2019-05-19T05:10:31.203Z,312.99
2019-05-19T05:11:31.180Z,312.03
2019-05-19T05:12:31.166Z,318.25
2019-05-19T05:13:31.157Z,315.72
2019-05-19T05:14:31.184Z,314.48
2019-05-19T05:15:31.141Z,314.10
2019-05-19T05:16:31.174Z,313.17
2019-05-19T05:17:31.101Z,313.19
2019-05-19T05:18:31.104Z,316.50
2019-05-19T05:19:31.093Z,313.15
2019-05-19T05:20:31.100Z,311.52
2019-05-19T05:21:31.064Z,313.62
2019-05-19T05:22:31.054Z,312.23
2019-05-19T05:23:31.049Z,313.28
2019-05-19T05:24:31.039Z,317.83
2019-05-19T05:25:31.047Z,310.33
2019-05-19T05:26:31.015Z,311.38
2019-05-19T05:27:30.996Z,315.56
2019-05-19T05:28:30.994Z,310.20
2019-05-19T05:29:30.968Z,310.50
2019-05-19T05:30:30.972Z,314.22
2019-05-19T05:31:30.959Z,310.09
2019-05-19T05:32:30.950Z,311.12
2019-05-19T05:33:30.931Z,315.21
2019-05-19T05:34:30.932Z,316.00
2019-05-19T05:35:30.905Z,310.98
2019-05-19T05:36:30.887Z,314.14
2019-05-19T05:37:30.890Z,310.28
2019-05-19T05:38:30.891Z,309.30
2019-05-19T05:39:30.861Z,310.38
2019-05-19T05:40:30.876Z,314.95
2019-05-19T05:41:30.843Z,311.15
2019-05-19T05:42:31.995Z,314.99
2019-05-19T05:43:30.828Z,310.71
2019-05-19T05:44:30.829Z,314.91
2019-05-19T05:45:30.835Z,309.47
2019-05-19T05:46:30.796Z,309.25
2019-05-19T05:47:30.784Z,310.00
2019-05-19T05:48:30.762Z,314.35
2019-05-19T05:49:30.758Z,312.75
2019-05-19T05:50:30.753Z,310.95
2019-05-19T05:51:30.738Z,310.74
2019-05-19T05:52:38.567Z,311.04
2019-05-19T05:53:31.706Z,312.57
2019-05-19T05:54:30.697Z,313.47
2019-05-19T05:55:30.706Z,311.89
2019-05-19T05:56:30.678Z,318.80
2019-05-19T05:57:30.674Z,312.26
2019-05-19T05:58:30.672Z,316.89
2019-05-19T05:59:30.642Z,316.01
2019-05-19T06:00:30.662Z,316.69
2019-05-19T06:01:30.631Z,317.33
2019-05-19T06:02:30.617Z,316.78
2019-05-19T06:03:30.595Z,316.21
2019-05-19T06:04:30.586Z,315.27
2019-05-19T06:05:30.630Z,312.70
2019-05-19T06:06:30.573Z,316.31
2019-05-19T06:07:30.545Z,314.61
2019-05-19T06:08:30.582Z,316.52
2019-05-19T06:09:30.545Z,310.38
2019-05-19T06:10:30.526Z,315.77
2019-05-19T06:11:30.525Z,311.16
2019-05-19T06:12:30.497Z,316.83
2019-05-19T06:13:30.490Z,309.96
2019-05-19T06:14:30.474Z,317.19
2019-05-19T06:15:30.470Z,310.24
2019-05-19T06:16:30.478Z,315.80
2019-05-19T06:17:30.464Z,313.40
2019-05-19T06:18:30.440Z,307.58
2019-05-19T06:19:30.430Z,310.80
2019-05-19T06:20:30.417Z,306.29
2019-05-19T06:21:30.411Z,313.53
2019-05-19T06:22:30.381Z,309.26
2019-05-19T06:23:30.405Z,310.12
2019-05-19T06:24:30.378Z,315.52
2019-05-19T06:25:30.481Z,309.95
2019-05-19T06:26:30.358Z,313.73
2019-05-19T06:27:30.347Z,309.55
2019-05-19T06:28:30.324Z,312.71
2019-05-19T06:29:30.323Z,306.65
2019-05-19T06:30:30.324Z,312.66
2019-05-19T06:31:30.309Z,311.00
2019-05-19T06:32:30.279Z,307.91
2019-05-19T06:33:30.266Z,307.52
2019-05-19T06:34:30.312Z,313.20
2019-05-19T06:35:30.261Z,307.45
2019-05-19T06:36:30.261Z,308.35
2019-05-19T06:37:30.228Z,307.65
2019-05-19T06:38:30.225Z,307.48
2019-05-19T06:39:30.204Z,307.86
2019-05-19T06:40:30.198Z,308.22
2019-05-19T06:41:30.209Z,308.28
2019-05-19T06:42:30.181Z,307.21
2019-05-19T06:43:30.168Z,309.70
2019-05-19T06:44:30.153Z,303.24
2019-05-19T06:45:30.345Z,305.40
2019-05-19T06:46:30.146Z,307.07
2019-05-19T06:47:30.189Z,303.19
2019-05-19T06:48:30.137Z,306.12
2019-05-19T06:49:30.106Z,309.30
2019-05-19T06:50:30.119Z,309.92
2019-05-19T06:51:30.102Z,308.37
2019-05-19T06:52:30.068Z,305.29
2019-05-19T06:53:30.067Z,304.15
2019-05-19T06:54:30.068Z,300.91
2019-05-19T06:55:30.073Z,310.77
2019-05-19T06:56:30.061Z,301.73
2019-05-19T06:57:30.025Z,307.37
2019-05-19T06:58:30.004Z,309.07
2019-05-19T06:59:30.010Z,308.30
2019-05-19T07:00:29.993Z,305.73
2019-05-19T07:01:30.006Z,302.88
2019-05-19T07:02:29.975Z,301.07
2019-05-19T07:03:29.982Z,305.58
2019-05-19T07:04:29.939Z,296.49
2019-05-19T07:05:29.939Z,298.96
2019-05-19T07:06:29.934Z,308.61
2019-05-19T07:07:29.922Z,305.66
2019-05-19T07:08:29.916Z,317.05
2019-05-19T07:09:29.970Z,305.89
2019-05-19T07:10:29.891Z,308.36
2019-05-19T07:11:29.889Z,303.98
2019-05-19T07:12:29.863Z,310.58
2019-05-19T07:13:29.863Z,306.91
2019-05-19T07:14:29.861Z,308.03
2019-05-19T07:15:29.824Z,302.47
2019-05-19T07:16:29.843Z,302.72
2019-05-19T07:17:29.829Z,302.07
2019-05-19T07:18:29.809Z,308.08
2019-05-19T07:19:29.802Z,305.03
2019-05-19T07:20:29.801Z,300.83
2019-05-19T07:21:29.801Z,301.88
2019-05-19T07:22:29.781Z,304.70
2019-05-19T07:23:29.753Z,299.91
2019-05-19T07:24:29.740Z,311.62
2019-05-19T07:25:29.728Z,300.90
2019-05-19T07:26:29.737Z,309.02
2019-05-19T07:27:29.717Z,311.92
2019-05-19T07:28:29.707Z,311.89
2019-05-19T07:29:29.678Z,304.92
2019-05-19T07:30:29.679Z,311.48
2019-05-19T07:31:29.702Z,309.51
2019-05-19T07:32:29.694Z,310.07
2019-05-19T07:33:29.655Z,305.79
2019-05-19T07:34:29.653Z,314.09
2019-05-19T07:35:29.618Z,307.79
2019-05-19T07:36:29.678Z,297.77
2019-05-19T07:37:29.611Z,306.86
2019-05-19T07:38:29.601Z,305.96
2019-05-19T07:39:29.588Z,298.14
2019-05-19T07:40:29.588Z,301.15
2019-05-19T07:41:29.592Z,294.52
2019-05-19T07:42:29.571Z,303.76
2019-05-19T07:43:29.547Z,303.19
2019-05-19T07:44:29.544Z,305.08
2019-05-19T07:45:29.529Z,309.11
2019-05-19T07:46:29.536Z,301.24
2019-05-19T07:47:29.502Z,299.30
2019-05-19T07:48:29.506Z,304.44
2019-05-19T07:49:29.494Z,301.36
2019-05-19T07:50:29.481Z,307.83
2019-05-19T07:51:29.531Z,299.64
2019-05-19T07:52:29.466Z,308.87
2019-05-19T07:53:42.171Z,300.03
2019-05-19T07:54:30.447Z,310.02
2019-05-19T07:55:29.421Z,309.68
2019-05-19T07:56:29.429Z,311.13
2019-05-19T07:57:29.404Z,303.44
2019-05-19T07:58:29.395Z,311.02
2019-05-19T07:59:29.387Z,306.09
2019-05-19T08:00:29.492Z,314.20
2019-05-19T08:01:29.399Z,304.85
2019-05-19T08:02:29.366Z,308.22
2019-05-19T08:03:29.384Z,307.47
2019-05-19T08:04:29.340Z,311.13
2019-05-19T08:05:29.335Z,304.61
2019-05-19T08:06:29.353Z,309.64
2019-05-19T08:07:29.722Z,302.73
2019-05-19T08:08:29.308Z,312.87
2019-05-19T08:09:29.282Z,305.01
2019-05-19T08:10:29.374Z,307.20
2019-05-19T08:11:29.285Z,307.55
2019-05-19T08:12:29.452Z,302.20
2019-05-19T08:13:29.379Z,294.72
2019-05-19T08:14:29.309Z,309.51
2019-05-19T08:15:29.231Z,301.23
2019-05-19T08:16:29.234Z,299.29
2019-05-19T08:17:29.239Z,292.30
2019-05-19T08:18:29.210Z,297.03
2019-05-19T08:19:29.202Z,307.89
2019-05-19T08:20:29.195Z,291.44
2019-05-19T08:21:29.176Z,299.58
2019-05-19T08:22:29.170Z,306.51
2019-05-19T08:23:29.214Z,301.26
2019-05-19T08:24:29.144Z,311.86
2019-05-19T08:25:29.153Z,314.87
2019-05-19T08:26:29.135Z,312.07
2019-05-19T08:27:29.132Z,305.73
2019-05-19T08:28:29.107Z,303.98
2019-05-19T08:29:29.101Z,301.77
2019-05-19T08:30:29.129Z,307.56
2019-05-19T08:31:29.126Z,305.49
2019-05-19T08:32:29.089Z,308.02
2019-05-19T08:33:29.077Z,303.05
2019-05-19T08:34:29.068Z,301.09
2019-05-19T08:35:29.052Z,299.41
2019-05-19T08:36:29.041Z,291.04
2019-05-19T08:37:29.046Z,302.79
2019-05-19T08:38:29.019Z,304.11
2019-05-19T08:39:29.010Z,294.37
2019-05-19T08:40:29.005Z,305.36
2019-05-19T08:41:28.981Z,307.41
2019-05-19T08:42:28.997Z,303.61
2019-05-19T08:43:28.966Z,304.33
2019-05-19T08:44:28.995Z,303.05
2019-05-19T08:45:28.955Z,291.31
2019-05-19T08:46:28.955Z,298.06
2019-05-19T08:47:28.958Z,296.52
2019-05-19T08:48:28.929Z,302.85
2019-05-19T08:49:28.924Z,303.83
2019-05-19T08:50:28.914Z,285.36
2019-05-19T08:51:28.895Z,300.20
2019-05-19T08:52:28.894Z,292.67
2019-05-19T08:53:28.869Z,301.65
2019-05-19T08:54:28.866Z,303.26
2019-05-19T08:55:28.871Z,303.45
2019-05-19T08:56:28.850Z,307.36
2019-05-19T08:57:28.852Z,305.85
2019-05-19T08:58:28.831Z,304.26
2019-05-19T08:59:28.807Z,296.63
2019-05-19T09:00:28.850Z,304.10
2019-05-19T09:01:28.794Z,296.23
2019-05-19T09:02:28.796Z,301.55
2019-05-19T09:03:28.822Z,305.53
2019-05-19T09:04:28.778Z,298.25
2019-05-19T09:05:28.755Z,291.69
2019-05-19T09:06:28.737Z,292.49
2019-05-19T09:07:28.759Z,295.69
2019-05-19T09:08:28.729Z,301.15
2019-05-19T09:09:28.721Z,303.08
2019-05-19T09:10:28.716Z,303.13
2019-05-19T09:11:28.761Z,299.17
2019-05-19T09:12:28.691Z,310.76
2019-05-19T09:13:28.677Z,305.64
2019-05-19T09:14:28.666Z,293.83
2019-05-19T09:15:28.665Z,299.66
2019-05-19T09:16:28.658Z,308.52
2019-05-19T09:17:28.658Z,310.20
2019-05-19T09:18:28.636Z,302.36
2019-05-19T09:19:28.618Z,294.27
2019-05-19T09:20:28.605Z,300.94
2019-05-19T09:21:28.642Z,309.75
2019-05-19T09:22:28.613Z,304.59
2019-05-19T09:23:28.583Z,297.49
2019-05-19T09:24:30.693Z,314.08
2019-05-19T09:25:28.555Z,313.43
2019-05-19T09:26:28.562Z,310.66
2019-05-19T09:27:28.579Z,308.31
2019-05-19T09:28:28.585Z,307.61
2019-05-19T09:29:28.575Z,305.19
2019-05-19T09:30:28.527Z,302.80
2019-05-19T09:31:28.499Z,305.37
2019-05-19T09:32:28.510Z,310.71
2019-05-19T09:33:28.481Z,301.72
2019-05-19T09:34:28.495Z,317.09
2019-05-19T09:35:28.488Z,300.03
2019-05-19T09:36:28.470Z,310.01
2019-05-19T09:37:28.478Z,311.22
2019-05-19T09:38:28.436Z,311.41
2019-05-19T09:39:28.444Z,300.79
2019-05-19T09:40:28.433Z,318.06
2019-05-19T09:41:28.415Z,305.02
2019-05-19T09:42:28.438Z,308.38
2019-05-19T09:43:28.399Z,305.86
2019-05-19T09:44:28.373Z,309.61
2019-05-19T09:45:28.420Z,295.65
2019-05-19T09:46:28.357Z,309.95
2019-05-19T09:47:28.369Z,305.68
2019-05-19T09:48:28.347Z,305.88
2019-05-19T09:49:28.348Z,306.07
2019-05-19T09:50:28.349Z,305.04
2019-05-19T09:51:28.310Z,303.60
2019-05-19T09:52:28.315Z,297.23
2019-05-19T09:53:28.296Z,310.07
2019-05-19T09:54:28.291Z,297.63
2019-05-19T09:55:28.263Z,294.79
2019-05-19T09:56:28.264Z,312.78
2019-05-19T09:57:28.269Z,306.13
2019-05-19T09:58:28.247Z,304.65
2019-05-19T09:59:28.243Z,297.71
2019-05-19T10:00:28.245Z,304.12
2019-05-19T10:01:28.221Z,299.45
2019-05-19T10:02:28.210Z,310.39
2019-05-19T10:03:28.216Z,302.00
2019-05-19T10:04:28.186Z,293.99
2019-05-19T10:05:28.171Z,306.20
2019-05-19T10:06:28.178Z,308.09
2019-05-19T10:07:28.195Z,316.79
2019-05-19T10:08:28.190Z,312.15
2019-05-19T10:09:28.138Z,300.96
2019-05-19T10:10:28.126Z,309.27
2019-05-19T10:11:28.152Z,311.59
2019-05-19T10:12:28.128Z,306.10
2019-05-19T10:13:28.125Z,318.28
2019-05-19T10:14:28.097Z,308.30
2019-05-19T10:15:28.100Z,311.90
2019-05-19T10:16:28.079Z,307.40
2019-05-19T10:17:28.066Z,298.01
2019-05-19T10:18:28.069Z,310.43
2019-05-19T10:19:28.057Z,313.06
2019-05-19T10:20:28.048Z,293.10
2019-05-19T10:21:28.038Z,302.57
2019-05-19T10:22:28.030Z,302.19
2019-05-19T10:23:28.015Z,291.24
2019-05-19T10:24:27.992Z,301.80
2019-05-19T10:25:27.995Z,303.20
2019-05-19T10:26:27.983Z,301.50
2019-05-19T10:27:27.968Z,286.21
2019-05-19T10:28:27.980Z,310.11
2019-05-19T10:29:27.995Z,309.58
2019-05-19T10:30:27.940Z,309.85
2019-05-19T10:31:27.948Z,299.12
2019-05-19T10:32:27.946Z,298.24
2019-05-19T10:33:27.928Z,312.19
2019-05-19T10:34:27.924Z,291.37
2019-05-19T10:35:27.898Z,298.50
2019-05-19T10:36:27.883Z,297.76
2019-05-19T10:37:27.888Z,301.78
2019-05-19T10:38:27.888Z,309.71
2019-05-19T10:39:27.863Z,292.02
2019-05-19T10:40:27.868Z,293.68
2019-05-19T10:41:27.850Z,301.73
2019-05-19T10:42:27.867Z,305.92
2019-05-19T10:43:27.845Z,303.49
2019-05-19T10:44:27.822Z,301.53
2019-05-19T10:45:27.816Z,298.38
2019-05-19T10:46:27.809Z,302.82
2019-05-19T10:47:27.795Z,299.66
2019-05-19T10:48:27.823Z,309.57
2019-05-19T10:49:27.789Z,298.19
2019-05-19T10:50:27.796Z,295.07
2019-05-19T10:51:27.749Z,311.55
2019-05-19T10:52:27.753Z,303.57
2019-05-19T10:53:27.757Z,293.42
2019-05-19T10:54:27.735Z,283.58
2019-05-19T10:55:36.288Z,295.70
2019-05-19T10:56:28.703Z,293.01
2019-05-19T10:57:27.713Z,291.01
2019-05-19T10:58:27.717Z,297.80
2019-05-19T10:59:27.696Z,306.02
2019-05-19T11:00:27.725Z,302.28
2019-05-19T11:01:27.673Z,295.30
2019-05-19T11:02:27.650Z,295.60
2019-05-19T11:03:27.659Z,297.67
2019-05-19T11:04:27.631Z,304.73
2019-05-19T11:05:27.636Z,302.27
2019-05-19T11:06:27.626Z,304.69
2019-05-19T11:07:27.618Z,297.33
2019-05-19T11:08:27.617Z,299.56
2019-05-19T11:09:27.594Z,302.32
2019-05-19T11:10:27.590Z,301.30
2019-05-19T11:11:27.581Z,315.35
2019-05-19T11:12:27.569Z,306.70
2019-05-19T11:13:27.554Z,301.32
2019-05-19T11:14:27.543Z,306.84
2019-05-19T11:15:27.530Z,306.04
2019-05-19T11:16:27.517Z,308.07
2019-05-19T11:17:27.518Z,304.51
2019-05-19T11:18:27.517Z,306.55
2019-05-19T11:19:27.494Z,304.72
2019-05-19T11:20:27.481Z,310.32
2019-05-19T11:21:27.469Z,304.76
2019-05-19T11:22:27.458Z,310.96
2019-05-19T11:23:27.523Z,310.54
2019-05-19T11:24:27.615Z,298.02
2019-05-19T11:25:33.819Z,300.49
2019-05-19T11:26:28.431Z,309.94
2019-05-19T11:27:27.434Z,311.72
2019-05-19T11:28:27.417Z,313.63
2019-05-19T11:29:27.396Z,294.31
2019-05-19T11:30:27.386Z,311.95
2019-05-19T11:31:27.384Z,306.20
2019-05-19T11:32:27.374Z,317.01
2019-05-19T11:33:27.373Z,309.03
2019-05-19T11:34:27.351Z,305.71
2019-05-19T11:35:27.331Z,312.90
2019-05-19T11:36:27.335Z,310.27
2019-05-19T11:37:27.320Z,309.98
2019-05-19T11:38:27.358Z,306.47
2019-05-19T11:39:27.289Z,305.70
2019-05-19T11:40:27.278Z,303.91
2019-05-19T11:41:27.274Z,302.98
2019-05-19T11:42:27.271Z,307.30
2019-05-19T11:43:27.250Z,304.66
2019-05-19T11:44:27.292Z,304.42
2019-05-19T11:45:27.232Z,314.93
2019-05-19T11:46:27.222Z,315.03
2019-05-19T11:47:27.210Z,311.37
2019-05-19T11:48:27.204Z,307.42
2019-05-19T11:49:27.215Z,304.55
2019-05-19T11:50:27.185Z,311.92
2019-05-19T11:51:27.177Z,308.18
2019-05-19T11:52:27.166Z,300.68
2019-05-19T11:53:27.144Z,306.45
2019-05-19T11:54:27.139Z,309.87
2019-05-19T11:55:27.135Z,306.57
2019-05-19T11:56:27.121Z,310.66
2019-05-19T11:57:27.104Z,308.50
2019-05-19T11:58:27.100Z,315.56
2019-05-19T11:59:27.101Z,305.15
2019-05-19T12:00:27.080Z,307.09
2019-05-19T12:01:27.078Z,312.78
2019-05-19T12:02:27.077Z,308.60
2019-05-19T12:03:27.048Z,309.61
2019-05-19T12:04:27.125Z,319.07
2019-05-19T12:05:27.059Z,310.88
2019-05-19T12:06:38.710Z,314.13
2019-05-19T12:07:27.998Z,317.02
2019-05-19T12:08:27.003Z,309.90
2019-05-19T12:09:27.018Z,300.52
2019-05-19T12:10:27.001Z,312.51
2019-05-19T12:11:26.960Z,307.46
2019-05-19T12:12:26.961Z,300.58
2019-05-19T12:13:26.964Z,308.31
2019-05-19T12:14:26.957Z,313.61
2019-05-19T12:15:26.936Z,299.37
2019-05-19T12:16:26.952Z,305.56
2019-05-19T12:17:26.910Z,313.72
2019-05-19T12:18:26.898Z,310.67
2019-05-19T12:19:26.903Z,301.25
2019-05-19T12:20:26.879Z,295.61
2019-05-19T12:21:26.884Z,312.88
2019-05-19T12:22:26.869Z,307.78
2019-05-19T12:23:26.875Z,305.68
2019-05-19T12:24:26.881Z,314.81
2019-05-19T12:25:26.838Z,311.50
2019-05-19T12:26:26.819Z,313.45
2019-05-19T12:27:26.829Z,305.46
2019-05-19T12:28:26.819Z,309.64